This is the latest recevied weather packets stored in our database for station/object SM6VFJ-1. If no packets are shown the sender has not sent any weather packets the latest 10 day(s).
| Time | Temp. | Humidity | Pressure | Rain* | Wind** | Luminosity | Snow |
|---|---|---|---|---|---|---|---|
| 1777761028 | 14.44° C | 71% | 1009.5 hPa | 0 mm | - | 0 W/m² | - |
| 1777760126 | 15.56° C | 71% | 1009.7 hPa | 0 mm | - | 0 W/m² | - |
| 1777757421 | 15.56° C | 65% | 1009.7 hPa | 0 mm | - | 0 W/m² | - |
| 1777752919 | 16.67° C | 57% | 1009.6 hPa | 0 mm | - | 0 W/m² | - |
| 1777748417 | 18.33° C | 54% | 1009.9 hPa | 0 mm | - | 0 W/m² | - |
| 1777745722 | 19.44° C | 50% | 1009.8 hPa | 0 mm | - | 19 W/m² | - |
| 1777742113 | 21.11° C | 45% | 1009.6 hPa | 0 mm | - | 109 W/m² | - |
| 1777734002 | 22.78° C | 36% | 1010.5 hPa | 0 mm | - | 424 W/m² | - |
| 1777728651 | 22.78° C | 36% | 1011.3 hPa | 0 mm | - | 603 W/m² | - |
| 1777725962 | 22.78° C | 37% | 1012.1 hPa | 0 mm | - | 657 W/m² | - |
| 1777716019 | 20.56° C | 45% | 1014.3 hPa | 0 mm | - | 700 W/m² | - |
| 1777715116 | 20.56° C | 46% | 1014.4 hPa | 0 mm | - | 687 W/m² | - |
| 1777714212 | 20° C | 45% | 1014.6 hPa | 0 mm | - | 679 W/m² | - |
| 1777713309 | 20° C | 46% | 1014.6 hPa | 0 mm | - | 663 W/m² | - |
| 1777708849 | 17.22° C | 57% | 1015.5 hPa | 0 mm | - | 541 W/m² | - |
| 1777702518 | 13.33° C | 66% | 1016.5 hPa | 0 mm | - | 311 W/m² | - |
| 1777701614 | 12.78° C | 68% | 1016.7 hPa | 0 mm | - | 278 W/m² | - |
| 1777694450 | 8.89° C | 75% | 1017.9 hPa | 0 mm | - | 23 W/m² | - |
| 1777693542 | 9.44° C | 74% | 1018 hPa | 0 mm | - | 16 W/m² | - |
| 1777690843 | 9.44° C | 73% | 1018.3 hPa | 0 mm | - | 0 W/m² | - |
| 1777686321 | 10° C | 68% | 1019 hPa | 0 mm | - | 0 W/m² | - |
| 1777682711 | 10.56° C | 65% | 1019.5 hPa | 0 mm | - | 0 W/m² | - |
| 1777681810 | 10.56° C | 64% | 1019.6 hPa | 0 mm | - | 0 W/m² | - |
| 1777680906 | 11.11° C | 63% | 1019.6 hPa | 0 mm | - | 0 W/m² | - |
| 1777677358 | 11.11° C | 62% | 1020.3 hPa | 0 mm | - | 0 W/m² | - |
* Rain latest hour (hover to see other rain measurements)
** Current wind speed in m/s (hover to see current wind gust speed)